createdAt,value
2022-12-19T00:01:03.118Z,12.82
2022-12-19T00:03:29.987Z,12.93
2022-12-19T00:05:56.854Z,14.73
2022-12-19T00:08:24.938Z,13.00
2022-12-19T00:10:56.302Z,13.68
2022-12-19T00:13:23.478Z,12.02
2022-12-19T00:15:50.263Z,13.70
2022-12-19T00:18:17.046Z,12.02
2022-12-19T00:20:43.841Z,12.45
2022-12-19T00:23:10.672Z,12.20
2022-12-19T00:25:38.808Z,12.15
2022-12-19T00:28:06.938Z,11.45
2022-12-19T00:30:33.718Z,9.23
2022-12-19T00:33:00.450Z,11.63
2022-12-19T00:35:27.212Z,13.10
2022-12-19T00:37:53.984Z,11.35
2022-12-19T00:40:20.749Z,10.35
2022-12-19T00:42:53.690Z,11.90
2022-12-19T00:45:20.870Z,10.45
2022-12-19T00:47:47.611Z,13.57
2022-12-19T00:50:14.445Z,11.73
2022-12-19T00:52:41.189Z,10.95
2022-12-19T00:55:16.434Z,10.73
2022-12-19T00:57:46.553Z,9.27
2022-12-19T01:00:16.223Z,13.35
2022-12-19T01:02:43.134Z,11.88
2022-12-19T01:05:10.043Z,10.65
2022-12-19T01:07:36.792Z,10.23
2022-12-19T01:10:04.680Z,11.55
2022-12-19T01:12:31.421Z,10.93
2022-12-19T01:15:03.772Z,10.93
2022-12-19T01:17:33.492Z,11.27
2022-12-19T01:20:02.209Z,11.02
2022-12-19T01:22:28.926Z,12.65
2022-12-19T01:24:55.683Z,11.70
2022-12-19T01:27:22.562Z,12.48
2022-12-19T01:29:52.786Z,12.93
2022-12-19T01:32:20.237Z,12.48
2022-12-19T01:34:48.348Z,11.60
2022-12-19T01:37:16.548Z,9.93
2022-12-19T01:39:43.436Z,11.85
2022-12-19T01:42:14.958Z,13.30
2022-12-19T01:45:02.377Z,11.77
2022-12-19T01:47:29.457Z,11.43
2022-12-19T01:49:57.613Z,10.30
2022-12-19T01:52:24.714Z,12.50
2022-12-19T01:54:51.581Z,14.43
2022-12-19T01:57:19.730Z,11.18
2022-12-19T01:59:49.939Z,13.20
2022-12-19T02:02:21.809Z,12.43
2022-12-19T02:04:48.666Z,11.98
2022-12-19T02:07:18.658Z,11.90
2022-12-19T02:09:47.268Z,13.50
2022-12-19T02:12:24.203Z,12.48
2022-12-19T02:14:52.027Z,11.20
2022-12-19T02:17:29.837Z,11.80
2022-12-19T02:20:56.997Z,13.00
2022-12-19T02:24:02.866Z,11.13
2022-12-19T02:27:06.054Z,10.52
2022-12-19T02:29:51.024Z,11.68
2022-12-19T02:32:26.872Z,11.88
2022-12-19T02:34:59.669Z,12.60
2022-12-19T02:37:30.207Z,10.95
2022-12-19T02:40:04.232Z,13.18
2022-12-19T02:42:36.098Z,10.60
2022-12-19T02:45:05.545Z,11.43
2022-12-19T02:47:35.127Z,11.73
2022-12-19T02:50:02.517Z,11.55
2022-12-19T02:52:45.748Z,11.25
2022-12-19T02:55:15.688Z,11.77
2022-12-19T02:58:01.486Z,11.23
2022-12-19T03:00:29.091Z,12.27
2022-12-19T03:03:09.212Z,11.23
2022-12-19T03:05:43.088Z,11.68
2022-12-19T03:10:44.300Z,9.40
2022-12-19T03:13:14.403Z,10.60
2022-12-19T03:15:42.298Z,10.68
2022-12-19T03:18:11.216Z,12.05
2022-12-19T03:20:44.526Z,11.20
2022-12-19T03:23:12.038Z,10.73
2022-12-19T03:25:41.543Z,9.75
2022-12-19T03:28:13.470Z,9.82
2022-12-19T03:30:42.657Z,12.00
2022-12-19T03:33:13.356Z,10.27
2022-12-19T03:35:41.749Z,9.88
2022-12-19T03:38:10.881Z,12.23
2022-12-19T03:40:39.729Z,12.20
2022-12-19T03:43:08.633Z,12.35
2022-12-19T03:45:44.548Z,12.18
2022-12-19T03:48:16.205Z,11.82
2022-12-19T03:50:48.821Z,10.90
2022-12-19T03:53:26.327Z,11.45
2022-12-19T03:55:59.102Z,12.93
2022-12-19T03:58:29.844Z,13.90
2022-12-19T04:00:58.052Z,13.50
2022-12-19T04:03:28.162Z,11.98
2022-12-19T04:05:57.208Z,10.68
2022-12-19T04:08:24.971Z,11.40
2022-12-19T04:10:58.470Z,10.18
2022-12-19T04:13:30.595Z,10.98
2022-12-19T04:16:04.941Z,11.18
2022-12-19T04:18:33.737Z,9.88
2022-12-19T04:21:05.567Z,11.18
2022-12-19T04:23:35.654Z,9.23
2022-12-19T04:26:04.798Z,11.60
2022-12-19T04:28:36.122Z,9.90
2022-12-19T04:31:04.434Z,12.48
2022-12-19T04:33:31.198Z,11.77
2022-12-19T04:36:00.120Z,10.15
2022-12-19T04:38:27.316Z,11.75
2022-12-19T04:40:54.135Z,12.13
2022-12-19T04:43:20.899Z,10.75
2022-12-19T04:45:49.723Z,10.95
2022-12-19T04:48:19.509Z,10.85
2022-12-19T04:50:46.292Z,12.90
2022-12-19T04:53:14.450Z,11.45
2022-12-19T04:55:41.267Z,10.75
2022-12-19T04:58:08.083Z,12.40
2022-12-19T05:00:35.231Z,11.45
2022-12-19T05:03:02.141Z,9.80
2022-12-19T05:05:29.050Z,13.82
2022-12-19T05:07:55.829Z,9.75
2022-12-19T05:10:23.930Z,10.30
2022-12-19T05:12:50.725Z,9.55
2022-12-19T05:15:17.625Z,12.07
2022-12-19T05:17:44.436Z,11.95
2022-12-19T05:20:11.739Z,12.27
2022-12-19T05:22:38.481Z,11.60
2022-12-19T05:25:06.431Z,12.52
2022-12-19T05:27:34.721Z,12.45
2022-12-19T05:30:01.473Z,13.25
2022-12-19T05:32:30.252Z,12.23
2022-12-19T05:34:57.052Z,8.73
2022-12-19T05:37:23.821Z,11.25
2022-12-19T05:39:50.642Z,11.23
2022-12-19T05:42:17.407Z,12.70
2022-12-19T05:44:45.526Z,12.63
2022-12-19T05:47:12.487Z,15.45
2022-12-19T05:49:39.223Z,12.57
2022-12-19T05:52:05.949Z,13.30
2022-12-19T05:54:32.913Z,13.45
2022-12-19T05:56:59.661Z,12.25
2022-12-19T05:59:26.599Z,12.38
2022-12-19T06:01:55.263Z,9.93
2022-12-19T06:04:22.083Z,10.80
2022-12-19T06:06:48.839Z,11.18
2022-12-19T06:09:15.736Z,13.10
2022-12-19T06:11:42.484Z,12.07
2022-12-19T06:14:09.224Z,12.45
2022-12-19T06:16:36.003Z,11.23
2022-12-19T06:19:04.221Z,12.68
2022-12-19T06:21:31.076Z,12.93
2022-12-19T06:23:57.957Z,11.77
2022-12-19T06:26:24.945Z,12.43
2022-12-19T06:28:52.814Z,12.50
2022-12-19T06:31:20.660Z,12.15
2022-12-19T06:33:47.436Z,11.23
2022-12-19T06:36:18.559Z,11.55
2022-12-19T06:38:45.304Z,11.50
2022-12-19T06:41:12.546Z,11.73
2022-12-19T06:43:39.476Z,14.48
2022-12-19T06:46:06.460Z,12.75
2022-12-19T06:48:33.545Z,10.70
2022-12-19T06:51:00.355Z,11.80
2022-12-19T06:53:28.724Z,12.15
2022-12-19T06:55:57.831Z,10.85
2022-12-19T06:58:25.124Z,13.20
2022-12-19T07:00:52.217Z,11.88
2022-12-19T07:03:24.943Z,12.77
2022-12-19T07:05:52.449Z,11.70
2022-12-19T07:08:19.219Z,12.57
2022-12-19T07:10:47.375Z,14.43
2022-12-19T07:13:14.471Z,12.65
2022-12-19T07:15:41.660Z,14.20
2022-12-19T07:18:09.997Z,13.20
2022-12-19T07:20:43.332Z,13.82
2022-12-19T07:23:16.766Z,11.63
2022-12-19T07:25:43.620Z,10.45
2022-12-19T07:28:11.803Z,12.85
2022-12-19T07:30:38.569Z,11.80
2022-12-19T07:33:05.336Z,11.15
2022-12-19T07:35:32.066Z,13.05
2022-12-19T07:38:01.889Z,15.07
2022-12-19T07:40:28.938Z,13.90
2022-12-19T07:42:59.146Z,12.70
2022-12-19T07:45:27.418Z,12.63
2022-12-19T07:47:54.245Z,11.43
2022-12-19T07:50:21.034Z,12.02
2022-12-19T07:52:47.786Z,13.98
2022-12-19T07:55:14.754Z,10.55
2022-12-19T07:57:41.816Z,9.68
2022-12-19T08:00:09.889Z,10.60
2022-12-19T08:02:38.083Z,11.45
2022-12-19T08:05:05.957Z,11.50
2022-12-19T08:07:33.039Z,10.63
2022-12-19T08:09:59.792Z,11.95
2022-12-19T08:12:26.618Z,11.93
2022-12-19T08:14:57.164Z,13.40
2022-12-19T08:17:24.312Z,12.45
2022-12-19T08:19:52.576Z,11.93
2022-12-19T08:22:19.389Z,12.95
2022-12-19T08:24:46.345Z,13.68
2022-12-19T08:27:13.154Z,13.75
2022-12-19T08:29:39.878Z,11.73
2022-12-19T08:32:06.622Z,11.68
2022-12-19T08:34:33.475Z,11.45
2022-12-19T08:37:01.620Z,10.18
2022-12-19T08:39:28.351Z,10.50
2022-12-19T08:41:55.076Z,11.43
2022-12-19T08:44:22.012Z,8.93
2022-12-19T08:46:50.478Z,10.85
2022-12-19T08:49:17.694Z,12.07
2022-12-19T08:51:44.560Z,13.27
2022-12-19T08:54:12.723Z,9.77
2022-12-19T08:56:45.997Z,12.27
2022-12-19T09:01:43.051Z,7.35
2022-12-19T09:05:42.165Z,12.00
2022-12-19T09:06:56.728Z,11.00
2022-12-19T09:09:24.903Z,10.65
2022-12-19T09:11:51.748Z,9.88
2022-12-19T09:14:20.931Z,14.20
2022-12-19T09:16:48.630Z,10.00
2022-12-19T09:19:15.545Z,12.88
2022-12-19T09:21:42.870Z,13.07
2022-12-19T09:24:10.615Z,9.98
2022-12-19T09:26:38.751Z,10.68
2022-12-19T09:29:10.962Z,10.98
2022-12-19T09:31:47.117Z,11.07
2022-12-19T09:34:13.949Z,9.63
2022-12-19T09:36:40.734Z,11.85
2022-12-19T09:39:07.530Z,12.98
2022-12-19T09:41:54.906Z,11.60
2022-12-19T09:44:36.624Z,13.70
2022-12-19T09:47:10.421Z,10.85
2022-12-19T09:52:15.244Z,11.52
2022-12-19T09:54:46.151Z,10.43
2022-12-19T09:57:17.957Z,11.43
2022-12-19T09:59:50.266Z,11.25
2022-12-19T10:02:29.198Z,9.40
2022-12-19T10:05:05.981Z,10.20
2022-12-19T10:08:07.681Z,9.35
2022-12-19T10:12:39.116Z,10.00
2022-12-19T10:13:47.619Z,12.15
2022-12-19T10:16:23.889Z,9.80
2022-12-19T10:18:56.873Z,11.88
2022-12-19T10:22:16.895Z,12.07
2022-12-19T10:24:44.103Z,10.18
2022-12-19T10:27:31.161Z,8.50
2022-12-19T10:30:10.980Z,10.63
2022-12-19T10:32:46.804Z,11.38
2022-12-19T10:35:15.975Z,12.13
2022-12-19T10:37:49.858Z,12.38
2022-12-19T10:40:28.307Z,13.32
2022-12-19T10:42:59.579Z,9.45
2022-12-19T10:45:41.671Z,11.70
2022-12-19T10:48:15.334Z,11.23
2022-12-19T10:50:42.143Z,13.65
2022-12-19T10:53:10.742Z,11.27
2022-12-19T10:55:45.980Z,10.48
2022-12-19T10:58:22.897Z,9.82
2022-12-19T11:01:13.586Z,12.63
2022-12-19T11:03:42.602Z,9.98
2022-12-19T11:06:39.910Z,10.60
2022-12-19T11:09:21.465Z,10.32
2022-12-19T11:14:21.451Z,10.77
2022-12-19T11:20:45.238Z,11.98
2022-12-19T11:23:21.208Z,10.13
2022-12-19T11:29:32.670Z,10.55
2022-12-19T11:29:33.480Z,11.25
2022-12-19T11:29:36.671Z,10.60
2022-12-19T11:30:48.178Z,8.25
2022-12-19T11:34:27.502Z,11.35
2022-12-19T11:36:59.916Z,9.55
2022-12-19T11:39:39.593Z,10.77
2022-12-19T11:42:11.185Z,11.23
2022-12-19T11:44:44.209Z,9.43
2022-12-19T11:47:19.124Z,12.07
2022-12-19T11:49:51.592Z,11.05
2022-12-19T11:53:02.279Z,12.35
2022-12-19T11:55:18.126Z,9.25
2022-12-19T11:57:46.535Z,10.65
2022-12-19T12:00:16.144Z,10.23
2022-12-19T12:03:10.943Z,11.20
2022-12-19T12:05:44.443Z,11.05
2022-12-19T12:10:16.137Z,7.80
2022-12-19T12:15:50.529Z,11.18
2022-12-19T12:22:48.210Z,9.50
2022-12-19T12:31:07.544Z,10.18
2022-12-19T12:31:10.063Z,11.52
2022-12-19T12:31:16.639Z,12.52
2022-12-19T12:31:39.473Z,9.75
2022-12-19T12:31:46.435Z,11.07
2022-12-19T12:35:33.434Z,10.68
2022-12-19T12:38:43.852Z,11.32
2022-12-19T12:41:21.256Z,9.98
2022-12-19T12:44:01.726Z,10.05
2022-12-19T12:46:34.400Z,10.50
2022-12-19T12:49:03.863Z,12.23
2022-12-19T12:51:32.716Z,11.70
2022-12-19T12:54:04.594Z,12.20
2022-12-19T12:56:32.417Z,11.65
2022-12-19T12:59:19.573Z,11.75
2022-12-19T13:01:50.030Z,10.50
2022-12-19T13:04:24.501Z,9.25
2022-12-19T13:07:18.705Z,11.32
2022-12-19T13:09:53.476Z,11.30
2022-12-19T13:12:25.938Z,11.43
2022-12-19T13:14:52.805Z,11.63
2022-12-19T13:17:25.198Z,12.50
2022-12-19T13:19:57.441Z,10.35
2022-12-19T13:22:41.528Z,13.65
2022-12-19T13:25:47.189Z,10.43
2022-12-19T13:28:36.077Z,10.70
2022-12-19T13:31:20.811Z,9.32
2022-12-19T13:34:15.971Z,10.82
2022-12-19T13:39:49.599Z,12.25
2022-12-19T13:40:07.520Z,12.13
2022-12-19T13:42:35.619Z,11.65
2022-12-19T13:45:08.561Z,12.00
2022-12-19T13:47:37.688Z,11.35
2022-12-19T13:50:14.996Z,10.85
2022-12-19T13:52:41.736Z,9.70
2022-12-19T13:55:13.652Z,10.68
2022-12-19T13:57:41.875Z,11.50
2022-12-19T14:00:16.982Z,11.48
2022-12-19T14:02:48.357Z,11.30
2022-12-19T14:05:32.216Z,11.27
2022-12-19T14:08:15.818Z,10.13
2022-12-19T14:11:40.903Z,11.48
2022-12-19T14:13:58.917Z,10.10
2022-12-19T14:16:35.004Z,10.18
2022-12-19T14:19:22.319Z,11.80
2022-12-19T14:22:10.512Z,11.15
2022-12-19T14:24:36.062Z,11.02
2022-12-19T14:28:26.979Z,13.88
2022-12-19T14:30:27.494Z,11.82
2022-12-19T14:33:44.636Z,12.48
2022-12-19T14:36:11.292Z,12.02
2022-12-19T14:39:27.262Z,9.90
2022-12-19T14:41:19.755Z,11.68
2022-12-19T14:44:00.200Z,10.48
2022-12-19T14:54:20.629Z,12.48
2022-12-19T14:54:20.629Z,9.27
2022-12-19T14:54:46.758Z,10.57
2022-12-19T14:56:19.577Z,9.63
2022-12-19T14:58:53.360Z,11.85
2022-12-19T15:01:22.909Z,12.23
2022-12-19T15:04:49.433Z,11.57
2022-12-19T15:07:07.429Z,12.75
2022-12-19T15:11:02.895Z,10.98
2022-12-19T15:14:47.461Z,24.13
2022-12-19T15:15:19.646Z,21.75
2022-12-19T15:17:48.093Z,18.45
2022-12-19T15:20:16.934Z,10.88
2022-12-19T15:23:22.604Z,11.65
2022-12-19T15:26:07.290Z,12.70
2022-12-19T15:28:38.979Z,12.80
2022-12-19T15:31:12.180Z,14.25
2022-12-19T15:33:59.815Z,16.90
2022-12-19T15:36:27.228Z,14.90
2022-12-19T15:38:53.989Z,14.95
2022-12-19T15:41:22.314Z,16.73
2022-12-19T15:44:06.234Z,13.32
2022-12-19T15:46:33.848Z,13.90
2022-12-19T15:49:00.785Z,15.18
2022-12-19T15:51:28.891Z,12.73
2022-12-19T15:54:08.899Z,10.98
2022-12-19T15:56:44.068Z,14.30
2022-12-19T15:59:23.223Z,14.48
2022-12-19T16:01:51.273Z,14.43
2022-12-19T16:04:18.626Z,14.50
2022-12-19T16:06:46.932Z,15.18
2022-12-19T16:09:20.534Z,13.85
2022-12-19T16:11:47.727Z,13.90
2022-12-19T16:14:14.727Z,13.15
2022-12-19T16:16:41.665Z,12.98
2022-12-19T16:19:23.839Z,12.07
2022-12-19T16:21:52.582Z,13.65
2022-12-19T16:24:20.019Z,11.02
2022-12-19T16:26:53.076Z,13.05
2022-12-19T16:29:22.378Z,13.13
2022-12-19T16:31:49.579Z,14.85
2022-12-19T16:34:18.141Z,13.43
2022-12-19T16:36:45.348Z,12.95
2022-12-19T16:39:13.472Z,12.30
2022-12-19T16:41:42.642Z,14.45
2022-12-19T16:44:19.321Z,12.93
2022-12-19T16:46:50.582Z,13.45
2022-12-19T16:49:20.718Z,14.35
2022-12-19T16:51:47.476Z,11.38
2022-12-19T16:54:16.976Z,13.88
2022-12-19T16:56:46.973Z,12.73
2022-12-19T16:59:17.488Z,12.65
2022-12-19T17:01:46.327Z,13.02
2022-12-19T17:04:15.125Z,11.68
2022-12-19T17:06:42.564Z,12.23
2022-12-19T17:09:13.379Z,11.63
2022-12-19T17:11:43.630Z,13.07
2022-12-19T17:14:15.421Z,13.90
2022-12-19T17:16:42.585Z,13.57
2022-12-19T17:19:17.011Z,13.32
2022-12-19T17:21:43.800Z,11.45
2022-12-19T17:24:13.515Z,12.77
2022-12-19T17:26:42.251Z,13.10
2022-12-19T17:29:09.352Z,12.38
2022-12-19T17:31:38.868Z,16.42
2022-12-19T17:34:07.868Z,14.77
2022-12-19T17:36:37.603Z,11.48
2022-12-19T17:39:17.410Z,12.75
2022-12-19T17:41:45.591Z,12.90
2022-12-19T17:44:12.374Z,13.32
2022-12-19T17:46:39.335Z,13.02
2022-12-19T17:49:06.396Z,10.77
2022-12-19T17:51:33.186Z,13.38
2022-12-19T17:53:59.920Z,13.52
2022-12-19T17:56:26.710Z,12.48
2022-12-19T17:58:54.803Z,13.45
2022-12-19T18:01:27.458Z,14.98
2022-12-19T18:03:54.938Z,15.45
2022-12-19T18:06:22.054Z,12.85
2022-12-19T18:08:48.835Z,13.00
2022-12-19T18:11:19.536Z,14.93
2022-12-19T18:13:46.608Z,14.35
2022-12-19T18:16:17.212Z,14.60
2022-12-19T18:18:44.546Z,13.50
2022-12-19T18:21:14.561Z,14.95
2022-12-19T18:23:42.122Z,13.95
2022-12-19T18:26:09.898Z,12.73
2022-12-19T18:28:36.795Z,13.85
2022-12-19T18:31:11.022Z,14.02
2022-12-19T18:33:40.879Z,12.30
2022-12-19T18:36:14.952Z,15.40
2022-12-19T18:38:41.704Z,16.25
2022-12-19T18:41:10.372Z,15.18
2022-12-19T18:43:37.283Z,15.77
2022-12-19T18:46:04.357Z,12.55
2022-12-19T18:48:32.911Z,14.40
2022-12-19T18:51:01.808Z,14.70
2022-12-19T18:53:34.425Z,16.02
2022-12-19T18:56:03.435Z,13.63
2022-12-19T18:58:30.192Z,15.32
2022-12-19T19:00:59.640Z,15.25
2022-12-19T19:03:29.719Z,14.77
2022-12-19T19:05:56.707Z,14.32
2022-12-19T19:08:26.986Z,14.40
2022-12-19T19:10:55.350Z,14.73
2022-12-19T19:13:24.197Z,15.02
2022-12-19T19:15:52.944Z,15.75
2022-12-19T19:18:22.244Z,17.83
2022-12-19T19:20:57.176Z,44.63
2022-12-19T19:23:33.150Z,25.85
2022-12-19T19:26:00.021Z,22.10
2022-12-19T19:28:26.761Z,20.48
2022-12-19T19:30:54.334Z,20.83
2022-12-19T19:33:25.220Z,18.25
2022-12-19T19:35:59.069Z,19.33
2022-12-19T19:40:54.079Z,15.00
2022-12-19T19:43:20.907Z,16.13
2022-12-19T19:45:47.692Z,16.35
2022-12-19T19:48:14.491Z,16.98
2022-12-19T19:50:41.235Z,16.33
2022-12-19T19:53:08.227Z,18.17
2022-12-19T19:55:35.040Z,15.23
2022-12-19T19:58:03.129Z,16.00
2022-12-19T20:00:29.960Z,16.73
2022-12-19T20:02:56.915Z,16.20
2022-12-19T20:05:23.778Z,18.02
2022-12-19T20:07:50.516Z,15.55
2022-12-19T20:10:17.279Z,14.48
2022-12-19T20:12:44.170Z,15.25
2022-12-19T20:15:12.517Z,14.40
2022-12-19T20:17:39.260Z,21.27
2022-12-19T20:20:07.439Z,18.10
2022-12-19T20:22:34.201Z,16.83
2022-12-19T20:25:00.938Z,16.83
2022-12-19T20:27:27.780Z,16.00
2022-12-19T20:29:54.642Z,19.20
2022-12-19T20:32:22.750Z,14.90
2022-12-19T20:34:52.161Z,16.42
2022-12-19T20:37:19.033Z,14.32
2022-12-19T20:39:45.804Z,13.15
2022-12-19T20:42:12.616Z,15.27
2022-12-19T20:44:39.452Z,14.88
2022-12-19T20:47:06.350Z,15.77
2022-12-19T20:49:34.743Z,17.00
2022-12-19T20:52:01.581Z,16.42
2022-12-19T20:54:28.355Z,16.95
2022-12-19T20:56:55.198Z,15.00
2022-12-19T20:59:22.049Z,15.77
2022-12-19T21:01:48.908Z,14.85
2022-12-19T21:04:16.177Z,14.60
2022-12-19T21:06:44.501Z,16.10
2022-12-19T21:09:11.312Z,16.25
2022-12-19T21:11:38.108Z,22.10
2022-12-19T21:14:04.907Z,19.42
2022-12-19T21:16:31.721Z,15.80
2022-12-19T21:18:58.534Z,15.55
2022-12-19T21:21:27.032Z,16.60
2022-12-19T21:23:55.626Z,15.00
2022-12-19T21:26:23.985Z,13.90
2022-12-19T21:28:51.259Z,15.32
2022-12-19T21:31:20.307Z,14.98
2022-12-19T21:33:47.444Z,15.35
2022-12-19T21:36:16.968Z,16.00
2022-12-19T21:38:43.869Z,15.13
2022-12-19T21:41:13.235Z,14.30
2022-12-19T21:43:40.048Z,14.80
2022-12-19T21:46:09.025Z,14.80
2022-12-19T21:48:37.702Z,13.48
2022-12-19T21:51:04.918Z,15.00
2022-12-19T21:53:32.042Z,16.65
2022-12-19T21:56:03.507Z,13.30
2022-12-19T21:58:31.612Z,13.32
2022-12-19T22:01:09.347Z,14.52
2022-12-19T22:03:36.941Z,14.55
2022-12-19T22:06:04.172Z,15.18
2022-12-19T22:08:31.257Z,15.27
2022-12-19T22:10:58.282Z,12.32
2022-12-19T22:13:25.100Z,13.40
2022-12-19T22:15:54.384Z,12.93
2022-12-19T22:18:21.104Z,13.70
2022-12-19T22:20:47.865Z,12.98
2022-12-19T22:23:14.620Z,14.20
2022-12-19T22:25:41.541Z,14.85
2022-12-19T22:28:08.286Z,14.23
2022-12-19T22:30:35.768Z,14.70
2022-12-19T22:33:04.160Z,12.60
2022-12-19T22:35:33.546Z,14.32
2022-12-19T22:38:00.304Z,14.68
2022-12-19T22:40:27.061Z,13.05
2022-12-19T22:42:53.857Z,14.10
2022-12-19T22:45:20.600Z,14.63
2022-12-19T22:47:47.341Z,14.07
2022-12-19T22:50:15.713Z,14.65
2022-12-19T22:52:42.438Z,12.90
2022-12-19T22:55:09.390Z,14.00
2022-12-19T22:57:36.266Z,13.10
2022-12-19T23:00:13.603Z,15.20
2022-12-19T23:02:41.539Z,12.57
2022-12-19T23:05:08.861Z,13.35
2022-12-19T23:07:36.980Z,12.90
2022-12-19T23:10:04.435Z,14.50
2022-12-19T23:12:31.214Z,13.20
2022-12-19T23:14:58.161Z,12.27
2022-12-19T23:17:24.905Z,13.98
2022-12-19T23:19:51.647Z,13.70
2022-12-19T23:22:18.448Z,13.45
2022-12-19T23:24:46.941Z,14.00
2022-12-19T23:27:13.725Z,12.85
2022-12-19T23:29:42.586Z,13.20
2022-12-19T23:32:10.176Z,12.93
2022-12-19T23:34:37.087Z,12.90
2022-12-19T23:37:12.355Z,12.38
2022-12-19T23:39:39.522Z,13.05
2022-12-19T23:42:07.624Z,10.25
2022-12-19T23:44:34.607Z,12.32
2022-12-19T23:47:03.858Z,13.85
2022-12-19T23:49:31.722Z,11.98
2022-12-19T23:51:58.533Z,13.68
2022-12-19T23:54:25.355Z,11.82
2022-12-19T23:56:52.098Z,12.07
2022-12-19T23:59:20.231Z,12.05
